Time;durP1;ratioP1;P1;durP2;ratioP2;P2;SDS_P1;SDS_P2;PMS_P1;PMS_P2;Temp;Humidity;BMP_temperature;BMP_pressure;BME280_temperature;BME280_humidity;BME280_pressure;Samples;Min_cycle;Max_cycle;Signal;HPM_P1;HPM_P2
2021/08/04 00:00:59;;;;;;;20.60;18.60;;;32.00;61.70;;;;;;5122875;28;20523;-42
2021/08/04 00:03:32;;;;;;;20.27;18.47;;;31.90;59.40;;;;;;5118551;28;20539;-42
2021/08/04 00:06:03;;;;;;;21.03;19.03;;;31.80;59.00;;;;;;5123275;28;20448;-44
2021/08/04 00:08:34;;;;;;;19.33;17.67;;;31.80;59.50;;;;;;5109331;28;20479;-42
2021/08/04 00:11:05;;;;;;;19.67;17.97;;;31.80;59.70;;;;;;5128010;28;20831;-43
2021/08/04 00:13:36;;;;;;;20.57;18.60;;;31.90;59.30;;;;;;5131050;27;20476;-43
2021/08/04 00:16:07;;;;;;;18.00;16.40;;;31.80;59.80;;;;;;5136062;28;20566;-44
2021/08/04 00:18:40;;;;;;;17.73;16.03;;;31.90;60.80;;;;;;5113371;28;20449;-43
2021/08/04 00:21:11;;;;;;;17.60;16.10;;;31.80;59.60;;;;;;5122864;28;20448;-44
2021/08/04 00:23:42;;;;;;;17.93;16.23;;;31.60;60.40;;;;;;5122906;28;20548;-43
2021/08/04 00:26:13;;;;;;;17.47;15.67;;;31.40;60.70;;;;;;5124906;28;20620;-44
2021/08/04 00:28:44;;;;;;;17.43;15.90;;;31.40;61.50;;;;;;5105816;28;20460;-44
2021/08/04 00:31:15;;;;;;;17.60;15.80;;;31.40;60.70;;;;;;5122510;28;20620;-44
2021/08/04 00:33:48;;;;;;;17.67;15.90;;;31.20;59.80;;;;;;5121250;28;20457;-44
2021/08/04 00:36:18;;;;;;;16.60;15.10;;;31.10;61.20;;;;;;5121225;28;20448;-44
2021/08/04 00:38:51;;;;;;;16.67;15.17;;;31.00;61.40;;;;;;5120289;28;20436;-44
2021/08/04 00:41:22;;;;;;;16.83;15.00;;;31.00;61.10;;;;;;5108693;28;20510;-44
2021/08/04 00:43:53;;;;;;;16.37;14.97;;;30.90;61.20;;;;;;5102013;28;20487;-43
2021/08/04 00:46:24;;;;;;;14.77;13.47;;;31.00;61.50;;;;;;5121718;28;21013;-44
2021/08/04 00:48:57;;;;;;;14.87;13.23;;;30.90;62.40;;;;;;5122171;28;20478;-44
2021/08/04 00:51:28;;;;;;;15.77;14.10;;;31.00;63.00;;;;;;5122402;28;20592;-42
2021/08/04 00:53:59;;;;;;;15.47;14.07;;;31.00;62.50;;;;;;5123002;28;20495;-43
2021/08/04 00:56:30;;;;;;;14.33;12.93;;;31.00;61.20;;;;;;5122431;28;20444;-43
2021/08/04 00:59:02;;;;;;;13.13;12.00;;;30.90;61.50;;;;;;5122422;28;20449;-43
2021/08/04 01:01:41;;;;;;;14.93;13.63;;;30.60;61.70;;;;;;5121743;28;20532;-43
2021/08/04 01:04:18;;;;;;;13.20;11.83;;;30.60;62.80;;;;;;5121493;28;20491;-42
2021/08/04 01:06:55;;;;;;;14.67;13.40;;;30.50;62.20;;;;;;5122386;28;20527;-42
2021/08/04 01:09:31;;;;;;;14.00;12.60;;;30.40;62.80;;;;;;5121414;28;20437;-42
2021/08/04 01:12:05;;;;;;;13.70;12.40;;;30.30;63.30;;;;;;5118986;28;20448;-42
2021/08/04 01:14:38;;;;;;;13.03;11.83;;;30.20;63.30;;;;;;5126491;28;20477;-42
2021/08/04 01:17:10;;;;;;;14.30;12.90;;;30.20;63.50;;;;;;5124776;28;20520;-43
2021/08/04 01:20:00;;;;;;;12.37;11.37;;;30.20;63.60;;;;;;5126440;28;20470;-43
2021/08/04 01:22:40;;;;;;;14.30;13.10;;;30.20;63.20;;;;;;5111014;28;20472;-42
2021/08/04 01:25:15;;;;;;;13.27;11.97;;;30.30;63.80;;;;;;5126376;27;20444;-42
2021/08/04 01:27:51;;;;;;;12.57;11.47;;;30.30;63.20;;;;;;5126003;28;20461;-43
2021/08/04 01:30:22;;;;;;;13.53;12.20;;;30.30;63.80;;;;;;5109616;28;20513;-43
2021/08/04 01:32:54;;;;;;;13.63;12.33;;;30.20;62.70;;;;;;5124176;28;20481;-42
2021/08/04 01:35:25;;;;;;;14.13;12.77;;;30.20;63.00;;;;;;5125928;28;20501;-43
2021/08/04 01:37:56;;;;;;;13.00;11.80;;;30.10;63.40;;;;;;5124923;28;20449;-43
2021/08/04 01:40:29;;;;;;;12.03;11.03;;;30.00;63.60;;;;;;5125737;28;20480;-42
2021/08/04 01:43:02;;;;;;;13.50;11.10;;;29.90;63.40;;;;;;5125506;28;20478;-42
2021/08/04 01:45:34;;;;;;;12.40;11.20;;;29.80;63.20;;;;;;5125990;28;20530;-41
2021/08/04 01:48:06;;;;;;;11.30;10.30;;;29.70;64.00;;;;;;5124277;28;20462;-42
2021/08/04 01:50:38;;;;;;;12.60;11.20;;;29.60;64.50;;;;;;5125755;28;20442;-42
2021/08/04 01:53:10;;;;;;;11.00;10.00;;;29.70;63.70;;;;;;5125239;28;20465;-42
2021/08/04 01:55:41;;;;;;;11.60;10.50;;;29.70;62.10;;;;;;5125738;28;20484;-43
2021/08/04 01:58:14;;;;;;;13.20;10.80;;;29.60;62.60;;;;;;5125163;28;20491;-42
2021/08/04 02:00:45;;;;;;;11.73;10.60;;;29.60;63.40;;;;;;5125316;28;20438;-41
2021/08/04 02:03:16;;;;;;;10.63;9.63;;;29.60;62.80;;;;;;5123794;28;20508;-42
2021/08/04 02:05:49;;;;;;;10.80;9.80;;;29.50;62.80;;;;;;5125553;28;20538;-43
2021/08/04 02:08:27;;;;;;;10.57;9.67;;;29.40;63.10;;;;;;5107010;28;20446;-42
2021/08/04 02:11:05;;;;;;;9.60;8.70;;;29.40;63.90;;;;;;5122822;28;20496;-42
2021/08/04 02:13:45;;;;;;;11.17;10.07;;;29.30;64.30;;;;;;5119875;28;20881;-43
2021/08/04 02:16:28;;;;;;;10.13;9.23;;;29.20;65.20;;;;;;5124742;28;20880;-42
2021/08/04 02:19:19;;;;;;;9.30;8.50;;;29.00;66.40;;;;;;5125523;28;20508;-42
2021/08/04 02:21:53;;;;;;;8.80;7.73;;;29.00;66.70;;;;;;5124382;28;20462;-42
2021/08/04 02:24:27;;;;;;;8.50;7.73;;;28.90;67.20;;;;;;5124556;28;20508;-42
2021/08/04 02:27:01;;;;;;;7.93;7.20;;;28.90;68.50;;;;;;5119115;28;20447;-42
2021/08/04 02:29:36;;;;;;;8.13;7.43;;;28.70;64.70;;;;;;5124135;28;20511;-42
2021/08/04 02:32:08;;;;;;;8.70;7.07;;;28.60;65.10;;;;;;5123722;28;20784;-42
2021/08/04 02:34:40;;;;;;;7.10;6.40;;;28.50;69.00;;;;;;5125174;28;20445;-42
2021/08/04 02:37:11;;;;;;;7.10;6.03;;;28.50;67.30;;;;;;5124520;28;20446;-42
2021/08/04 02:39:42;;;;;;;7.23;6.27;;;28.40;67.30;;;;;;5124721;28;20485;-42
2021/08/04 02:42:13;;;;;;;6.40;5.47;;;28.20;69.40;;;;;;5124138;28;20497;-42
2021/08/04 02:44:46;;;;;;;5.80;5.20;;;28.20;69.70;;;;;;5124902;28;20541;-42
2021/08/04 02:47:19;;;;;;;9.90;4.83;;;28.10;68.30;;;;;;5122987;28;20513;-42
2021/08/04 02:49:51;;;;;;;6.37;5.20;;;28.00;67.40;;;;;;5125025;28;20522;-42
2021/08/04 02:52:22;;;;;;;4.17;3.70;;;27.80;67.10;;;;;;5123323;28;20456;-42
2021/08/04 02:54:53;;;;;;;6.00;4.30;;;27.60;67.00;;;;;;5124344;28;20508;-42
2021/08/04 02:57:24;;;;;;;3.83;3.20;;;27.50;68.00;;;;;;5124011;28;20457;-42
2021/08/04 02:59:57;;;;;;;4.23;3.50;;;27.40;67.10;;;;;;5124384;28;20484;-42
2021/08/04 03:02:28;;;;;;;5.30;3.40;;;27.20;68.50;;;;;;5122942;28;20428;-42
2021/08/04 03:04:59;;;;;;;4.90;2.60;;;27.10;68.70;;;;;;5124344;28;20470;-42
2021/08/04 03:07:30;;;;;;;3.40;2.87;;;27.00;69.10;;;;;;5123597;28;20452;-42
2021/08/04 03:10:01;;;;;;;4.57;3.33;;;26.80;68.80;;;;;;5124459;28;20478;-42
2021/08/04 03:12:32;;;;;;;3.00;2.73;;;26.80;68.30;;;;;;5108627;28;20446;-42
2021/08/04 03:15:05;;;;;;;3.17;2.40;;;26.70;66.90;;;;;;5124208;28;20457;-42
2021/08/04 03:17:36;;;;;;;3.63;2.87;;;26.50;67.20;;;;;;5122256;28;20790;-41
2021/08/04 03:20:23;;;;;;;5.40;2.70;;;26.50;66.60;;;;;;5118685;27;20527;-42
2021/08/04 03:22:55;;;;;;;2.63;2.43;;;26.30;66.00;;;;;;5118246;28;20476;-42
2021/08/04 03:25:25;;;;;;;3.27;2.10;;;26.20;66.50;;;;;;5111891;28;20536;-42
2021/08/04 03:27:56;;;;;;;4.33;2.80;;;26.10;66.80;;;;;;5111870;28;20447;-42
2021/08/04 03:30:29;;;;;;;3.50;2.33;;;26.00;66.70;;;;;;5122466;28;20571;-41
2021/08/04 03:33:00;;;;;;;5.40;2.73;;;25.90;66.40;;;;;;5116294;28;20446;-42
2021/08/04 03:35:31;;;;;;;2.40;2.20;;;25.80;67.00;;;;;;5122393;28;20485;-41
2021/08/04 03:38:02;;;;;;;6.80;2.87;;;25.80;66.70;;;;;;5123095;28;20458;-42
2021/08/04 03:40:33;;;;;;;3.67;2.20;;;25.70;66.40;;;;;;5124081;28;20503;-42
2021/08/04 03:43:04;;;;;;;2.30;2.00;;;25.60;66.50;;;;;;5123563;28;20457;-42
2021/08/04 03:45:37;;;;;;;2.07;1.80;;;25.50;66.90;;;;;;5121853;28;20501;-41
2021/08/04 03:48:08;;;;;;;3.00;1.97;;;25.40;67.60;;;;;;5118489;28;20434;-41
2021/08/04 03:50:39;;;;;;;3.27;2.00;;;25.30;66.60;;;;;;5115659;28;20436;-42
2021/08/04 03:53:10;;;;;;;2.47;2.23;;;25.30;66.90;;;;;;5122022;28;20481;-42
2021/08/04 03:55:41;;;;;;;2.50;2.27;;;25.30;66.00;;;;;;5110986;28;20489;-41
2021/08/04 03:58:12;;;;;;;3.43;2.20;;;25.20;66.10;;;;;;5122304;28;20461;-41
2021/08/04 04:00:45;;;;;;;2.63;2.20;;;25.20;65.10;;;;;;5121208;28;20455;-42
2021/08/04 04:03:16;;;;;;;2.13;1.80;;;25.10;66.00;;;;;;5106465;28;20552;-42
2021/08/04 04:05:48;;;;;;;2.60;1.80;;;25.00;66.00;;;;;;5126233;28;20556;-42
2021/08/04 04:08:19;;;;;;;1.90;1.77;;;24.90;66.50;;;;;;5122467;28;20467;-42
2021/08/04 04:10:50;;;;;;;4.80;2.27;;;24.80;67.10;;;;;;5125717;28;20465;-41
2021/08/04 04:13:21;;;;;;;1.70;1.60;;;24.70;67.60;;;;;;5126984;28;20616;-42
2021/08/04 04:15:53;;;;;;;3.07;1.90;;;24.50;68.20;;;;;;5119582;27;20797;-42
2021/08/04 04:18:24;;;;;;;4.57;2.03;;;24.40;68.10;;;;;;5122103;28;20442;-42
2021/08/04 04:20:55;;;;;;;2.87;2.23;;;24.30;68.70;;;;;;5121786;28;20442;-42
2021/08/04 04:23:27;;;;;;;2.80;2.03;;;24.30;68.50;;;;;;5113939;28;20485;-42
2021/08/04 04:25:58;;;;;;;3.00;2.10;;;24.20;68.50;;;;;;5120032;28;20524;-41
2021/08/04 04:28:29;;;;;;;3.67;2.20;;;24.20;68.30;;;;;;5119225;28;20477;-41
2021/08/04 04:31:02;;;;;;;3.20;1.73;;;24.00;69.20;;;;;;5120572;28;20449;-41
2021/08/04 04:33:34;;;;;;;3.17;2.30;;;23.90;70.80;;;;;;5122056;28;20445;-42
2021/08/04 04:36:05;;;;;;;4.20;2.40;;;23.80;71.80;;;;;;5120636;28;20442;-42
2021/08/04 04:38:36;;;;;;;5.30;2.00;;;23.70;70.50;;;;;;5119359;28;20449;-42
2021/08/04 04:41:07;;;;;;;2.80;1.73;;;23.70;71.70;;;;;;5119152;28;20470;-43
2021/08/04 04:43:38;;;;;;;3.27;2.17;;;23.60;72.40;;;;;;5122943;28;20473;-42
2021/08/04 04:46:11;;;;;;;4.70;2.13;;;23.50;71.10;;;;;;5120078;28;20968;-42
2021/08/04 04:48:42;;;;;;;3.33;2.10;;;23.60;70.90;;;;;;5126237;28;20505;-42
2021/08/04 04:51:14;;;;;;;2.27;1.80;;;23.50;70.60;;;;;;5127268;28;21143;-42
2021/08/04 04:53:45;;;;;;;2.73;1.63;;;23.50;70.90;;;;;;5126849;28;20496;-42
2021/08/04 04:56:16;;;;;;;3.50;1.57;;;23.40;71.00;;;;;;5123293;28;20461;-42
2021/08/04 04:58:47;;;;;;;1.83;1.63;;;23.40;70.90;;;;;;5125991;28;20480;-42
2021/08/04 05:01:20;;;;;;;2.70;1.80;;;23.40;71.20;;;;;;5125986;28;20510;-42
2021/08/04 05:03:52;;;;;;;2.00;1.50;;;23.30;71.20;;;;;;5126569;28;20430;-43
2021/08/04 05:06:23;;;;;;;2.97;1.90;;;23.20;71.60;;;;;;5124560;28;20526;-43
2021/08/04 05:08:54;;;;;;;1.77;1.67;;;23.10;72.90;;;;;;5126343;28;20454;-42
2021/08/04 05:11:25;;;;;;;2.63;2.00;;;23.00;73.20;;;;;;5121103;28;20918;-42
2021/08/04 05:13:56;;;;;;;2.80;2.13;;;22.90;73.30;;;;;;5123520;28;20459;-43
2021/08/04 05:16:29;;;;;;;2.17;1.80;;;22.80;73.90;;;;;;5121651;28;20441;-42
2021/08/04 05:19:00;;;;;;;1.70;1.50;;;22.80;74.50;;;;;;5126169;28;20452;-43
2021/08/04 05:21:31;;;;;;;4.43;2.27;;;22.70;75.10;;;;;;5126340;28;20456;-43
2021/08/04 05:24:02;;;;;;;4.20;1.90;;;22.70;74.50;;;;;;5126059;28;20475;-42
2021/08/04 05:26:33;;;;;;;3.30;2.23;;;22.60;75.50;;;;;;5125787;28;20489;-43
2021/08/04 05:29:04;;;;;;;5.40;1.87;;;22.60;76.40;;;;;;5125802;28;20481;-43
2021/08/04 05:31:36;;;;;;;3.10;1.80;;;22.50;76.90;;;;;;5125398;28;21214;-43
2021/08/04 05:34:07;;;;;;;3.33;2.30;;;22.40;75.80;;;;;;5126492;27;20409;-43
2021/08/04 05:36:38;;;;;;;1.60;1.50;;;22.40;75.90;;;;;;5109414;28;20489;-43
2021/08/04 05:39:09;;;;;;;5.00;2.20;;;22.30;76.30;;;;;;5123988;28;20429;-43
2021/08/04 05:41:42;;;;;;;3.20;2.10;;;22.30;78.20;;;;;;5113637;28;20489;-43
2021/08/04 05:44:13;;;;;;;3.47;2.27;;;22.20;77.60;;;;;;5125749;28;20474;-43
2021/08/04 05:46:46;;;;;;;2.97;2.40;;;22.10;77.30;;;;;;5124765;28;20555;-43
2021/08/04 05:49:17;;;;;;;2.27;2.07;;;22.10;77.50;;;;;;5124064;28;20449;-42
2021/08/04 05:51:49;;;;;;;2.10;1.83;;;22.10;78.40;;;;;;5125020;28;20474;-43
2021/08/04 05:54:21;;;;;;;2.97;2.50;;;22.00;78.40;;;;;;5125591;27;20424;-43
2021/08/04 05:56:52;;;;;;;2.80;2.03;;;21.90;79.20;;;;;;5124872;28;20460;-43
2021/08/04 05:59:23;;;;;;;2.60;1.83;;;21.90;80.00;;;;;;5113170;28;21193;-43
2021/08/04 06:01:55;;;;;;;2.40;1.80;;;21.80;79.60;;;;;;5123902;28;20446;-44
2021/08/04 06:04:27;;;;;;;3.00;1.90;;;21.80;81.10;;;;;;5125976;28;20435;-43
2021/08/04 06:06:57;;;;;;;2.20;1.77;;;21.70;81.40;;;;;;5125162;28;20567;-43
2021/08/04 06:09:30;;;;;;;3.00;1.90;;;21.70;82.50;;;;;;5123319;28;20446;-44
2021/08/04 06:12:01;;;;;;;2.77;2.20;;;21.60;81.80;;;;;;5125389;28;20438;-44
2021/08/04 06:14:32;;;;;;;4.87;2.30;;;21.60;82.10;;;;;;5125384;28;20424;-43
2021/08/04 06:17:05;;;;;;;3.87;2.17;;;21.50;82.50;;;;;;5124165;28;20457;-44
2021/08/04 06:19:36;;;;;;;3.63;2.50;;;21.40;82.50;;;;;;5125031;28;20459;-43
2021/08/04 06:22:07;;;;;;;2.00;1.80;;;21.40;83.90;;;;;;5124721;28;20884;-42
2021/08/04 06:24:38;;;;;;;3.83;2.00;;;21.50;84.20;;;;;;5124878;28;20460;-43
2021/08/04 06:27:09;;;;;;;3.40;2.50;;;21.40;83.90;;;;;;5125172;28;20506;-43
2021/08/04 06:29:40;;;;;;;2.40;2.13;;;21.30;85.60;;;;;;5125050;28;20496;-42
2021/08/04 06:32:12;;;;;;;4.03;2.10;;;21.30;86.10;;;;;;5123556;28;20456;-42
2021/08/04 06:34:43;;;;;;;2.30;2.10;;;21.20;86.30;;;;;;5124731;28;20552;-43
2021/08/04 06:37:14;;;;;;;3.90;2.30;;;21.10;86.10;;;;;;5124786;28;20472;-43
2021/08/04 06:39:45;;;;;;;1.90;1.80;;;21.00;87.10;;;;;;5125203;28;20764;-43
2021/08/04 06:42:21;;;;;;;2.83;2.30;;;21.00;87.80;;;;;;5122484;28;20456;-42
2021/08/04 06:44:52;;;;;;;5.10;2.07;;;20.90;88.80;;;;;;5124803;28;20431;-42
2021/08/04 06:47:25;;;;;;;6.30;2.17;;;20.90;89.50;;;;;;5123533;28;20556;-43
2021/08/04 06:49:56;;;;;;;2.87;1.97;;;20.70;90.10;;;;;;5124312;28;20500;-43
2021/08/04 06:52:26;;;;;;;3.80;2.63;;;20.60;90.20;;;;;;5123935;28;20489;-43
2021/08/04 06:54:57;;;;;;;2.93;1.80;;;20.60;90.60;;;;;;5124717;28;20450;-42
2021/08/04 06:57:28;;;;;;;3.77;2.73;;;20.60;90.50;;;;;;5123257;28;20417;-43
2021/08/04 06:59:59;;;;;;;2.60;2.03;;;20.60;91.30;;;;;;5124409;28;20454;-42
2021/08/04 07:02:32;;;;;;;3.40;3.10;;;20.50;91.60;;;;;;5122965;28;20446;-41
2021/08/04 07:05:03;;;;;;;2.90;2.27;;;20.50;91.90;;;;;;5124291;28;20492;-42
2021/08/04 07:07:34;;;;;;;2.40;2.20;;;20.40;91.70;;;;;;5122370;28;20512;-42
2021/08/04 07:10:06;;;;;;;3.93;1.90;;;20.30;92.40;;;;;;5124040;28;20462;-42
2021/08/04 07:12:36;;;;;;;2.50;1.93;;;20.20;92.30;;;;;;5123631;28;20513;-42
2021/08/04 07:15:08;;;;;;;3.27;2.30;;;20.20;92.70;;;;;;5123965;28;20533;-42
2021/08/04 07:17:50;;;;;;;2.23;1.80;;;20.10;93.00;;;;;;5120408;28;20450;-42
2021/08/04 07:20:23;;;;;;;3.20;2.10;;;20.10;93.60;;;;;;5123415;28;20453;-41
2021/08/04 07:22:54;;;;;;;3.60;2.30;;;20.10;93.60;;;;;;5120935;28;20450;-42
2021/08/04 07:25:25;;;;;;;2.90;1.97;;;20.10;93.80;;;;;;5108097;28;20446;-44
2021/08/04 07:27:56;;;;;;;2.07;1.83;;;20.10;93.60;;;;;;5123994;28;20766;-44
2021/08/04 07:30:26;;;;;;;3.07;2.27;;;20.00;94.30;;;;;;5121901;28;20463;-43
2021/08/04 07:32:59;;;;;;;2.20;2.00;;;20.00;94.30;;;;;;5122375;28;20485;-42
2021/08/04 07:35:30;;;;;;;1.93;1.70;;;20.00;94.70;;;;;;5107174;28;20453;-42
2021/08/04 07:38:01;;;;;;;2.80;2.10;;;19.90;95.10;;;;;;5123474;28;20476;-42
2021/08/04 07:40:32;;;;;;;2.10;1.90;;;19.90;95.50;;;;;;5123510;28;20416;-42
2021/08/04 07:43:03;;;;;;;2.20;2.03;;;19.90;95.70;;;;;;5123062;28;20448;-42
2021/08/04 07:45:35;;;;;;;2.90;1.70;;;19.80;96.10;;;;;;5122828;28;20593;-42
2021/08/04 07:48:08;;;;;;;2.60;1.70;;;19.70;96.70;;;;;;5122787;28;20518;-42
2021/08/04 07:50:39;;;;;;;2.30;1.83;;;19.70;97.40;;;;;;5123641;28;20537;-42
2021/08/04 07:53:10;;;;;;;2.40;1.70;;;19.70;98.10;;;;;;5122937;28;20473;-42
2021/08/04 07:55:42;;;;;;;1.67;1.57;;;19.60;98.30;;;;;;5123135;28;20445;-42
2021/08/04 07:58:13;;;;;;;2.33;1.70;;;19.60;98.50;;;;;;5123446;28;20510;-42
2021/08/04 08:00:44;;;;;;;2.00;1.70;;;19.60;99.00;;;;;;5123657;28;20488;-42
2021/08/04 08:03:18;;;;;;;3.60;1.87;;;19.60;99.70;;;;;;5122024;28;20449;-42
2021/08/04 08:05:49;;;;;;;3.33;2.17;;;19.60;99.90;;;;;;5123267;28;20453;-42
2021/08/04 08:08:20;;;;;;;3.10;1.60;;;19.60;99.90;;;;;;5122976;28;20471;-42
2021/08/04 08:10:51;;;;;;;1.83;1.50;;;19.50;99.90;;;;;;5123497;28;20449;-42
2021/08/04 08:13:23;;;;;;;2.40;1.67;;;19.50;99.90;;;;;;5122036;28;20504;-42
2021/08/04 08:15:54;;;;;;;4.97;1.97;;;19.50;99.90;;;;;;5123408;28;20522;-42
2021/08/04 08:18:26;;;;;;;1.93;1.70;;;19.50;99.90;;;;;;5122087;28;20445;-42
2021/08/04 08:20:58;;;;;;;2.83;1.93;;;19.50;99.90;;;;;;5127486;28;20810;-42
2021/08/04 08:23:28;;;;;;;1.90;1.70;;;19.40;99.90;;;;;;5116446;28;20514;-42
2021/08/04 08:25:59;;;;;;;1.80;1.70;;;19.40;99.90;;;;;;5127569;28;20460;-42
2021/08/04 08:28:30;;;;;;;2.90;2.00;;;19.30;99.90;;;;;;5127206;28;20481;-42
2021/08/04 08:31:01;;;;;;;2.67;1.87;;;19.30;99.90;;;;;;5127006;28;20449;-42
2021/08/04 08:33:34;;;;;;;2.07;1.87;;;19.30;99.90;;;;;;5125269;28;20469;-42
2021/08/04 08:36:06;;;;;;;2.23;2.03;;;19.30;99.90;;;;;;5127313;28;20450;-42
2021/08/04 08:38:37;;;;;;;1.97;1.77;;;19.20;99.90;;;;;;5126620;28;20449;-42
2021/08/04 08:41:08;;;;;;;2.23;1.70;;;19.20;99.90;;;;;;5127256;28;20556;-43
2021/08/04 08:43:39;;;;;;;1.97;1.70;;;19.20;99.90;;;;;;5126442;28;20484;-42
2021/08/04 08:46:10;;;;;;;2.83;1.87;;;19.20;99.90;;;;;;5126562;28;20504;-42
2021/08/04 08:48:47;;;;;;;2.37;2.17;;;19.20;99.90;;;;;;5125475;28;20536;-41
2021/08/04 08:51:19;;;;;;;5.13;1.97;;;19.20;99.90;;;;;;5122346;28;20472;-42
2021/08/04 08:53:51;;;;;;;2.00;1.80;;;19.20;99.90;;;;;;5125774;28;20491;-43
2021/08/04 08:56:22;;;;;;;2.03;1.83;;;19.00;99.90;;;;;;5125131;28;20454;-42
2021/08/04 08:58:55;;;;;;;2.00;1.77;;;19.00;99.90;;;;;;5122908;28;20592;-42
2021/08/04 09:01:37;;;;;;;3.53;1.83;;;19.00;99.90;;;;;;5125280;28;20513;-42
2021/08/04 09:04:12;;;;;;;2.30;1.80;;;19.00;99.90;;;;;;5122608;28;20446;-41
2021/08/04 09:06:48;;;;;;;2.00;1.50;;;18.90;99.90;;;;;;5115528;28;20502;-42
2021/08/04 09:09:21;;;;;;;2.00;1.80;;;18.90;99.90;;;;;;5122486;28;20449;-42
2021/08/04 09:11:54;;;;;;;1.77;1.67;;;18.90;99.90;;;;;;5124987;28;20445;-42
2021/08/04 09:14:30;;;;;;;1.67;1.57;;;18.80;99.90;;;;;;5126383;28;20516;-42
2021/08/04 09:17:06;;;;;;;1.50;1.40;;;18.80;99.90;;;;;;5122859;28;20449;-42
2021/08/04 09:19:41;;;;;;;2.50;1.67;;;18.70;99.90;;;;;;5124685;28;20452;-42
2021/08/04 09:22:19;;;;;;;1.60;1.50;;;18.70;99.90;;;;;;5121824;28;20454;-41
2021/08/04 09:25:02;;;;;;;1.87;1.57;;;18.70;99.90;;;;;;5122331;28;20481;-41
2021/08/04 09:27:44;;;;;;;2.00;1.60;;;18.70;99.90;;;;;;5124290;28;20477;-42
2021/08/04 09:30:19;;;;;;;1.97;1.43;;;18.70;99.90;;;;;;5126006;28;20441;-42
2021/08/04 09:32:51;;;;;;;2.10;1.80;;;18.60;99.90;;;;;;5124679;28;20456;-42
2021/08/04 09:35:25;;;;;;;2.43;1.70;;;18.60;99.90;;;;;;5126203;28;20513;-42
2021/08/04 09:38:08;;;;;;;1.47;1.37;;;18.50;99.90;;;;;;5125818;28;20420;-42
2021/08/04 09:40:39;;;;;;;2.00;1.70;;;18.50;99.90;;;;;;5125578;28;20478;-41
2021/08/04 09:43:10;;;;;;;3.63;1.50;;;18.50;99.90;;;;;;5123339;28;20450;-41
2021/08/04 09:45:46;;;;;;;1.77;1.67;;;18.30;99.90;;;;;;5121651;28;20881;-41
2021/08/04 09:48:18;;;;;;;2.70;1.90;;;18.30;99.90;;;;;;5125058;28;20597;-42
2021/08/04 09:50:55;;;;;;;2.70;2.20;;;18.20;99.90;;;;;;5125539;28;20453;-43
2021/08/04 09:53:29;;;;;;;1.87;1.70;;;18.30;99.90;;;;;;5121983;28;20453;-42
2021/08/04 09:56:11;;;;;;;2.37;1.70;;;18.30;99.90;;;;;;5125753;28;20449;-41
2021/08/04 09:58:44;;;;;;;2.30;1.80;;;18.20;99.90;;;;;;5124925;28;20452;-41
2021/08/04 10:01:16;;;;;;;2.40;2.20;;;18.20;99.90;;;;;;5110519;28;20457;-42
2021/08/04 10:04:04;;;;;;;2.40;2.20;;;18.20;99.90;;;;;;5125328;28;20453;-42
2021/08/04 10:06:38;;;;;;;1.93;1.83;;;18.20;99.90;;;;;;5121358;28;20446;-42
2021/08/04 10:09:11;;;;;;;2.60;2.00;;;18.00;99.90;;;;;;5125160;28;20513;-42
2021/08/04 10:11:45;;;;;;;2.00;1.50;;;18.10;99.90;;;;;;5120157;28;20494;-42
2021/08/04 10:14:18;;;;;;;2.03;1.83;;;18.00;99.90;;;;;;5124760;28;20443;-42
2021/08/04 10:16:51;;;;;;;2.40;1.60;;;18.00;99.90;;;;;;5124531;28;20450;-42
2021/08/04 10:19:24;;;;;;;1.50;1.40;;;17.90;99.90;;;;;;5125218;28;20529;-43
2021/08/04 10:21:57;;;;;;;1.83;1.47;;;18.00;99.90;;;;;;5125243;28;20442;-43
2021/08/04 10:24:29;;;;;;;1.70;1.60;;;17.90;99.90;;;;;;5125118;28;20461;-43
2021/08/04 10:27:01;;;;;;;1.60;1.50;;;17.90;99.90;;;;;;5125109;28;20477;-40
2021/08/04 10:29:33;;;;;;;2.13;1.87;;;17.80;99.90;;;;;;5110132;28;20446;-41
2021/08/04 10:32:04;;;;;;;1.70;1.33;;;17.80;99.90;;;;;;5124247;28;20473;-42
2021/08/04 10:34:35;;;;;;;1.70;1.60;;;17.80;99.90;;;;;;5124666;28;20442;-42
2021/08/04 10:37:08;;;;;;;2.87;1.50;;;17.80;99.90;;;;;;5125123;27;20462;-42
2021/08/04 10:39:39;;;;;;;1.67;1.57;;;17.70;99.90;;;;;;5124961;28;20485;-42
2021/08/04 10:42:12;;;;;;;1.50;1.40;;;17.60;99.90;;;;;;5124949;28;20493;-41
2021/08/04 10:44:44;;;;;;;3.70;1.60;;;17.60;99.90;;;;;;5124809;28;20485;-41
2021/08/04 10:47:28;;;;;;;1.40;1.30;;;17.50;99.90;;;;;;5122905;28;20474;-42
2021/08/04 10:50:12;;;;;;;3.20;1.30;;;17.50;99.90;;;;;;5122407;28;20453;-41
2021/08/04 10:53:07;;;;;;;1.33;1.23;;;17.60;99.90;;;;;;5124694;28;20442;-41
2021/08/04 10:55:56;;;;;;;1.33;1.23;;;17.50;99.90;;;;;;5124165;28;20836;-41
2021/08/04 10:58:27;;;;;;;1.70;1.60;;;17.50;99.90;;;;;;5124432;28;20474;-41
2021/08/04 11:01:25;;;;;;;2.17;1.80;;;17.60;99.90;;;;;;5124382;28;20454;-41
2021/08/04 11:03:57;;;;;;;1.40;1.30;;;17.60;99.90;;;;;;5108710;28;20478;-41
2021/08/04 11:06:28;;;;;;;1.73;1.63;;;17.50;99.90;;;;;;5124224;28;20536;-41
2021/08/04 11:09:37;;;;;;;2.90;1.37;;;17.50;99.90;;;;;;5124329;28;20552;-41
2021/08/04 11:12:09;;;;;;;1.87;1.50;;;17.30;99.90;;;;;;5124029;28;20446;-42
2021/08/04 11:14:45;;;;;;;1.67;1.50;;;17.30;99.90;;;;;;5124206;28;20473;-41
2021/08/04 11:17:18;;;;;;;1.10;0.97;;;17.30;99.90;;;;;;5123301;28;20442;-39
2021/08/04 11:20:14;;;;;;;1.77;1.30;;;17.40;99.90;;;;;;5124526;28;20534;-41
2021/08/04 11:22:55;;;;;;;1.70;1.60;;;17.30;99.90;;;;;;5124044;28;20964;-43
2021/08/04 11:25:35;;;;;;;1.90;1.80;;;17.30;99.90;;;;;;5124358;28;20477;-42
2021/08/04 11:28:12;;;;;;;1.10;1.00;;;17.20;99.90;;;;;;5108733;28;20481;-41
2021/08/04 11:30:52;;;;;;;1.60;1.50;;;17.20;99.90;;;;;;5123851;28;20450;-41
2021/08/04 11:33:34;;;;;;;1.93;1.50;;;17.20;99.90;;;;;;5122667;28;20457;-41
2021/08/04 11:36:23;;;;;;;2.10;2.00;;;17.20;99.90;;;;;;5123371;28;20489;-41
2021/08/04 11:39:03;;;;;;;1.70;1.60;;;17.20;99.90;;;;;;5123594;28;20450;-42
2021/08/04 11:41:41;;;;;;;1.80;1.70;;;17.20;99.90;;;;;;5123138;28;20457;-42
2021/08/04 11:44:20;;;;;;;1.97;1.87;;;17.20;99.90;;;;;;5123741;28;20465;-42
2021/08/04 11:46:54;;;;;;;1.73;1.63;;;17.10;99.90;;;;;;5123164;28;20548;-42
2021/08/04 11:49:29;;;;;;;1.70;1.60;;;17.10;99.90;;;;;;5123700;28;20481;-42
2021/08/04 11:52:03;;;;;;;2.47;2.27;;;17.00;99.90;;;;;;5123032;28;20456;-41
2021/08/04 11:54:37;;;;;;;2.37;2.10;;;17.10;99.90;;;;;;5122871;28;20445;-41
2021/08/04 11:57:12;;;;;;;2.33;2.23;;;17.00;99.90;;;;;;5123399;28;20468;-42
2021/08/04 11:59:48;;;;;;;2.00;1.90;;;17.00;99.90;;;;;;5123544;28;20460;-42
2021/08/04 12:02:21;;;;;;;2.00;1.90;;;17.00;99.90;;;;;;5122587;28;20468;-41
2021/08/04 12:04:54;;;;;;;2.87;2.50;;;17.00;99.90;;;;;;5122981;28;20450;-41
2021/08/04 12:07:27;;;;;;;2.70;2.50;;;17.00;99.90;;;;;;5122584;28;20500;-42
2021/08/04 12:09:59;;;;;;;2.07;1.87;;;17.00;99.90;;;;;;5123251;28;20533;-42
2021/08/04 12:12:34;;;;;;;2.60;2.40;;;17.00;99.90;;;;;;5110093;28;20446;-42
2021/08/04 12:15:07;;;;;;;2.73;1.90;;;16.90;99.90;;;;;;5122627;28;20437;-42
2021/08/04 12:17:39;;;;;;;2.40;2.13;;;16.80;99.90;;;;;;5121714;28;21066;-41
2021/08/04 12:20:14;;;;;;;2.13;2.03;;;16.80;99.90;;;;;;5122253;28;20493;-42
2021/08/04 12:22:47;;;;;;;1.70;1.60;;;16.80;99.90;;;;;;5108173;28;20485;-42
2021/08/04 12:25:19;;;;;;;2.47;2.27;;;16.80;99.90;;;;;;5122983;28;20453;-42
2021/08/04 12:27:54;;;;;;;2.63;2.43;;;16.70;99.90;;;;;;5122876;28;20481;-42
2021/08/04 12:30:29;;;;;;;2.40;2.20;;;16.70;99.90;;;;;;5107214;28;20441;-42
2021/08/04 12:33:04;;;;;;;1.97;1.83;;;16.70;99.90;;;;;;5122661;28;20442;-42
2021/08/04 12:35:41;;;;;;;3.87;2.80;;;16.80;99.90;;;;;;5123220;28;20521;-42
2021/08/04 12:38:14;;;;;;;2.67;2.50;;;16.80;99.90;;;;;;5122782;28;20453;-42
2021/08/04 12:40:48;;;;;;;4.33;2.57;;;16.70;99.90;;;;;;5123327;28;20510;-42
2021/08/04 12:43:22;;;;;;;2.97;2.77;;;16.80;99.90;;;;;;5122929;28;20449;-42
2021/08/04 12:45:55;;;;;;;3.20;3.00;;;16.80;99.90;;;;;;5122424;28;20502;-41
2021/08/04 12:48:37;;;;;;;3.37;2.80;;;16.70;99.90;;;;;;5121526;28;20438;-41
2021/08/04 12:51:14;;;;;;;2.97;2.77;;;16.70;99.90;;;;;;5123104;28;20437;-42
2021/08/04 12:53:46;;;;;;;3.23;2.93;;;16.70;99.90;;;;;;5123228;28;20496;-42
2021/08/04 12:56:18;;;;;;;2.83;2.63;;;16.70;99.90;;;;;;5122515;28;20505;-41
2021/08/04 12:59:01;;;;;;;2.60;2.40;;;16.70;99.90;;;;;;5122508;28;20489;-42
2021/08/04 13:01:35;;;;;;;4.30;3.60;;;16.70;99.90;;;;;;5121720;28;20460;-42
2021/08/04 13:04:19;;;;;;;4.47;4.10;;;16.70;99.90;;;;;;5123147;28;20442;-42
2021/08/04 13:06:52;;;;;;;3.43;3.13;;;16.80;99.90;;;;;;5124391;28;20441;-41
2021/08/04 13:09:25;;;;;;;3.60;3.30;;;16.90;99.90;;;;;;5126868;28;20473;-41
2021/08/04 13:12:14;;;;;;;3.83;3.53;;;16.80;99.90;;;;;;5126336;28;20518;-42
2021/08/04 13:15:11;;;;;;;3.07;2.77;;;16.90;99.90;;;;;;5126253;28;20489;-42